sensor_id;sensor_type;location;lat;lon;timestamp;temperature;humidity
9544;DHT22;30418;51.45933468;7.33152330;2023-07-08T00:01:12;26.50;38.70
9544;DHT22;30418;51.45933468;7.33152330;2023-07-08T00:03:42;26.50;38.80
9544;DHT22;30418;51.45933468;7.33152330;2023-07-08T00:06:15;26.50;38.80
9544;DHT22;30418;51.45933468;7.33152330;2023-07-08T00:08:45;26.50;38.90
9544;DHT22;30418;51.45933468;7.33152330;2023-07-08T00:11:16;26.50;38.80
9544;DHT22;30418;51.45933468;7.33152330;2023-07-08T00:13:45;26.50;39.00
9544;DHT22;30418;51.45933468;7.33152330;2023-07-08T00:16:15;26.50;39.00
9544;DHT22;30418;51.45933468;7.33152330;2023-07-08T00:18:46;26.50;39.10
9544;DHT22;30418;51.45933468;7.33152330;2023-07-08T00:21:17;26.40;39.00
9544;DHT22;30418;51.45933468;7.33152330;2023-07-08T00:23:47;26.50;39.10
9544;DHT22;30418;51.45933468;7.33152330;2023-07-08T00:26:22;26.50;39.20
9544;DHT22;30418;51.45933468;7.33152330;2023-07-08T00:28:51;26.40;39.20
9544;DHT22;30418;51.45933468;7.33152330;2023-07-08T00:31:20;26.40;39.20
9544;DHT22;30418;51.45933468;7.33152330;2023-07-08T00:33:52;26.50;39.20
9544;DHT22;30418;51.45933468;7.33152330;2023-07-08T00:36:24;26.50;39.30
9544;DHT22;30418;51.45933468;7.33152330;2023-07-08T00:38:54;26.40;39.20
9544;DHT22;30418;51.45933468;7.33152330;2023-07-08T00:41:27;26.40;39.30
9544;DHT22;30418;51.45933468;7.33152330;2023-07-08T00:43:58;26.50;39.40
9544;DHT22;30418;51.45933468;7.33152330;2023-07-08T00:46:37;26.40;39.30
9544;DHT22;30418;51.45933468;7.33152330;2023-07-08T00:49:36;26.40;39.50
9544;DHT22;30418;51.45933468;7.33152330;2023-07-08T00:52:22;26.40;39.50
9544;DHT22;30418;51.45933468;7.33152330;2023-07-08T00:54:54;26.50;39.60
9544;DHT22;30418;51.45933468;7.33152330;2023-07-08T00:57:27;26.40;39.40
9544;DHT22;30418;51.45933468;7.33152330;2023-07-08T01:00:00;26.40;39.50
9544;DHT22;30418;51.45933468;7.33152330;2023-07-08T01:02:33;26.30;39.50
9544;DHT22;30418;51.45933468;7.33152330;2023-07-08T01:05:08;26.30;39.50
9544;DHT22;30418;51.45933468;7.33152330;2023-07-08T01:07:39;26.30;39.50
9544;DHT22;30418;51.45933468;7.33152330;2023-07-08T01:10:13;26.30;39.50
9544;DHT22;30418;51.45933468;7.33152330;2023-07-08T01:12:49;26.30;39.50
9544;DHT22;30418;51.45933468;7.33152330;2023-07-08T01:15:20;26.30;39.60
9544;DHT22;30418;51.45933468;7.33152330;2023-07-08T01:17:50;26.20;39.60
9544;DHT22;30418;51.45933468;7.33152330;2023-07-08T01:20:21;26.20;39.70
9544;DHT22;30418;51.45933468;7.33152330;2023-07-08T01:22:50;26.20;39.80
9544;DHT22;30418;51.45933468;7.33152330;2023-07-08T01:25:19;26.20;39.90
9544;DHT22;30418;51.45933468;7.33152330;2023-07-08T01:27:54;26.20;39.90
9544;DHT22;30418;51.45933468;7.33152330;2023-07-08T01:30:25;26.20;40.00
9544;DHT22;30418;51.45933468;7.33152330;2023-07-08T01:32:57;26.20;40.00
9544;DHT22;30418;51.45933468;7.33152330;2023-07-08T01:35:28;26.20;40.00
9544;DHT22;30418;51.45933468;7.33152330;2023-07-08T01:38:00;26.10;40.00
9544;DHT22;30418;51.45933468;7.33152330;2023-07-08T01:40:32;26.10;40.20
9544;DHT22;30418;51.45933468;7.33152330;2023-07-08T01:43:03;26.10;40.20
9544;DHT22;30418;51.45933468;7.33152330;2023-07-08T01:45:38;26.10;40.20
9544;DHT22;30418;51.45933468;7.33152330;2023-07-08T01:48:11;26.00;40.30
9544;DHT22;30418;51.45933468;7.33152330;2023-07-08T01:50:44;26.00;40.40
9544;DHT22;30418;51.45933468;7.33152330;2023-07-08T01:53:21;26.00;41.10
9544;DHT22;30418;51.45933468;7.33152330;2023-07-08T01:55:56;25.90;40.50
9544;DHT22;30418;51.45933468;7.33152330;2023-07-08T01:58:26;25.90;40.60
9544;DHT22;30418;51.45933468;7.33152330;2023-07-08T02:00:55;25.90;40.60
9544;DHT22;30418;51.45933468;7.33152330;2023-07-08T02:03:25;25.90;40.60
9544;DHT22;30418;51.45933468;7.33152330;2023-07-08T02:05:55;25.80;40.60
9544;DHT22;30418;51.45933468;7.33152330;2023-07-08T02:08:25;25.80;40.70
9544;DHT22;30418;51.45933468;7.33152330;2023-07-08T02:10:57;25.80;40.90
9544;DHT22;30418;51.45933468;7.33152330;2023-07-08T02:13:26;25.80;41.10
9544;DHT22;30418;51.45933468;7.33152330;2023-07-08T02:15:55;25.70;40.90
9544;DHT22;30418;51.45933468;7.33152330;2023-07-08T02:18:23;25.70;41.00
9544;DHT22;30418;51.45933468;7.33152330;2023-07-08T02:20:52;25.70;41.10
9544;DHT22;30418;51.45933468;7.33152330;2023-07-08T02:23:22;25.60;41.20
9544;DHT22;30418;51.45933468;7.33152330;2023-07-08T02:25:53;25.60;41.20
9544;DHT22;30418;51.45933468;7.33152330;2023-07-08T02:28:22;25.60;41.40
9544;DHT22;30418;51.45933468;7.33152330;2023-07-08T02:30:50;25.50;41.30
9544;DHT22;30418;51.45933468;7.33152330;2023-07-08T02:33:19;25.50;41.30
9544;DHT22;30418;51.45933468;7.33152330;2023-07-08T02:35:54;25.50;42.00
9544;DHT22;30418;51.45933468;7.33152330;2023-07-08T02:38:23;25.50;41.50
9544;DHT22;30418;51.45933468;7.33152330;2023-07-08T02:40:52;25.40;41.70
9544;DHT22;30418;51.45933468;7.33152330;2023-07-08T02:43:21;25.40;41.60
9544;DHT22;30418;51.45933468;7.33152330;2023-07-08T02:45:50;25.40;41.60
9544;DHT22;30418;51.45933468;7.33152330;2023-07-08T02:48:19;25.40;41.60
9544;DHT22;30418;51.45933468;7.33152330;2023-07-08T02:50:47;25.40;41.60
9544;DHT22;30418;51.45933468;7.33152330;2023-07-08T02:53:16;25.40;41.60
9544;DHT22;30418;51.45933468;7.33152330;2023-07-08T02:55:44;25.30;41.60
9544;DHT22;30418;51.45933468;7.33152330;2023-07-08T02:58:14;25.30;41.60
9544;DHT22;30418;51.45933468;7.33152330;2023-07-08T03:00:43;25.30;41.70
9544;DHT22;30418;51.45933468;7.33152330;2023-07-08T03:03:11;25.20;41.70
9544;DHT22;30418;51.45933468;7.33152330;2023-07-08T03:05:39;25.20;41.70
9544;DHT22;30418;51.45933468;7.33152330;2023-07-08T03:08:08;25.20;41.80
9544;DHT22;30418;51.45933468;7.33152330;2023-07-08T03:10:36;25.20;41.80
9544;DHT22;30418;51.45933468;7.33152330;2023-07-08T03:13:05;25.20;41.90
9544;DHT22;30418;51.45933468;7.33152330;2023-07-08T03:15:35;25.20;41.90
9544;DHT22;30418;51.45933468;7.33152330;2023-07-08T03:18:03;25.20;42.00
9544;DHT22;30418;51.45933468;7.33152330;2023-07-08T03:20:32;25.10;41.90
9544;DHT22;30418;51.45933468;7.33152330;2023-07-08T03:23:03;25.10;41.90
9544;DHT22;30418;51.45933468;7.33152330;2023-07-08T03:25:32;25.10;41.90
9544;DHT22;30418;51.45933468;7.33152330;2023-07-08T03:28:04;25.10;42.00
9544;DHT22;30418;51.45933468;7.33152330;2023-07-08T03:30:35;25.10;42.00
9544;DHT22;30418;51.45933468;7.33152330;2023-07-08T03:33:04;25.10;42.10
9544;DHT22;30418;51.45933468;7.33152330;2023-07-08T03:35:33;25.00;42.00
9544;DHT22;30418;51.45933468;7.33152330;2023-07-08T03:38:01;25.00;42.10
9544;DHT22;30418;51.45933468;7.33152330;2023-07-08T03:40:31;25.00;42.00
9544;DHT22;30418;51.45933468;7.33152330;2023-07-08T03:42:59;25.00;42.10
9544;DHT22;30418;51.45933468;7.33152330;2023-07-08T03:45:29;25.00;42.10
9544;DHT22;30418;51.45933468;7.33152330;2023-07-08T03:47:59;25.00;42.10
9544;DHT22;30418;51.45933468;7.33152330;2023-07-08T03:50:30;25.00;42.20
9544;DHT22;30418;51.45933468;7.33152330;2023-07-08T03:52:58;25.00;42.10
9544;DHT22;30418;51.45933468;7.33152330;2023-07-08T03:55:29;25.00;42.10
9544;DHT22;30418;51.45933468;7.33152330;2023-07-08T03:57:58;25.00;42.10
9544;DHT22;30418;51.45933468;7.33152330;2023-07-08T04:00:30;24.90;42.10
9544;DHT22;30418;51.45933468;7.33152330;2023-07-08T04:03:03;24.90;42.20
9544;DHT22;30418;51.45933468;7.33152330;2023-07-08T04:05:32;24.90;42.30
9544;DHT22;30418;51.45933468;7.33152330;2023-07-08T04:08:01;24.90;42.30
9544;DHT22;30418;51.45933468;7.33152330;2023-07-08T04:10:29;24.90;42.30
9544;DHT22;30418;51.45933468;7.33152330;2023-07-08T04:12:57;24.90;42.40
9544;DHT22;30418;51.45933468;7.33152330;2023-07-08T04:15:26;24.90;42.60
9544;DHT22;30418;51.45933468;7.33152330;2023-07-08T04:17:55;24.90;42.90
9544;DHT22;30418;51.45933468;7.33152330;2023-07-08T04:20:25;24.90;43.10
9544;DHT22;30418;51.45933468;7.33152330;2023-07-08T04:22:54;24.90;43.20
9544;DHT22;30418;51.45933468;7.33152330;2023-07-08T04:25:23;24.80;43.10
9544;DHT22;30418;51.45933468;7.33152330;2023-07-08T04:27:55;24.80;43.20
9544;DHT22;30418;51.45933468;7.33152330;2023-07-08T04:30:25;24.80;43.30
9544;DHT22;30418;51.45933468;7.33152330;2023-07-08T04:32:53;24.80;43.60
9544;DHT22;30418;51.45933468;7.33152330;2023-07-08T04:35:24;24.80;43.70
9544;DHT22;30418;51.45933468;7.33152330;2023-07-08T04:37:53;24.70;43.70
9544;DHT22;30418;51.45933468;7.33152330;2023-07-08T04:40:21;24.70;43.70
9544;DHT22;30418;51.45933468;7.33152330;2023-07-08T04:42:50;24.70;43.70
9544;DHT22;30418;51.45933468;7.33152330;2023-07-08T04:45:19;24.60;43.60
9544;DHT22;30418;51.45933468;7.33152330;2023-07-08T04:47:48;24.60;43.60
9544;DHT22;30418;51.45933468;7.33152330;2023-07-08T04:50:20;24.60;43.60
9544;DHT22;30418;51.45933468;7.33152330;2023-07-08T04:52:50;24.60;44.00
9544;DHT22;30418;51.45933468;7.33152330;2023-07-08T04:55:18;24.60;44.20
9544;DHT22;30418;51.45933468;7.33152330;2023-07-08T04:57:47;24.60;44.30
9544;DHT22;30418;51.45933468;7.33152330;2023-07-08T05:00:17;24.60;44.40
9544;DHT22;30418;51.45933468;7.33152330;2023-07-08T05:02:46;24.60;44.60
9544;DHT22;30418;51.45933468;7.33152330;2023-07-08T05:05:15;24.60;44.60
9544;DHT22;30418;51.45933468;7.33152330;2023-07-08T05:07:44;24.50;44.50
9544;DHT22;30418;51.45933468;7.33152330;2023-07-08T05:10:14;24.50;44.60
9544;DHT22;30418;51.45933468;7.33152330;2023-07-08T05:12:43;24.50;44.80
9544;DHT22;30418;51.45933468;7.33152330;2023-07-08T05:15:12;24.50;44.90
9544;DHT22;30418;51.45933468;7.33152330;2023-07-08T05:17:42;24.50;45.00
9544;DHT22;30418;51.45933468;7.33152330;2023-07-08T05:20:13;24.40;45.00
9544;DHT22;30418;51.45933468;7.33152330;2023-07-08T05:22:42;24.40;45.10
9544;DHT22;30418;51.45933468;7.33152330;2023-07-08T05:25:12;24.40;45.10
9544;DHT22;30418;51.45933468;7.33152330;2023-07-08T05:27:42;24.40;45.10
9544;DHT22;30418;51.45933468;7.33152330;2023-07-08T05:30:14;24.40;45.20
9544;DHT22;30418;51.45933468;7.33152330;2023-07-08T05:32:44;24.40;45.20
9544;DHT22;30418;51.45933468;7.33152330;2023-07-08T05:35:13;24.50;45.20
9544;DHT22;30418;51.45933468;7.33152330;2023-07-08T05:37:43;24.40;45.30
9544;DHT22;30418;51.45933468;7.33152330;2023-07-08T05:40:16;24.50;45.30
9544;DHT22;30418;51.45933468;7.33152330;2023-07-08T05:42:44;24.50;45.50
9544;DHT22;30418;51.45933468;7.33152330;2023-07-08T05:45:13;24.60;45.60
9544;DHT22;30418;51.45933468;7.33152330;2023-07-08T05:47:41;24.60;45.70
9544;DHT22;30418;51.45933468;7.33152330;2023-07-08T05:50:10;24.60;45.70
9544;DHT22;30418;51.45933468;7.33152330;2023-07-08T05:52:39;24.60;45.70
9544;DHT22;30418;51.45933468;7.33152330;2023-07-08T05:55:08;24.60;45.80
9544;DHT22;30418;51.45933468;7.33152330;2023-07-08T05:57:38;24.70;46.10
9544;DHT22;30418;51.45933468;7.33152330;2023-07-08T06:00:08;24.70;46.30
9544;DHT22;30418;51.45933468;7.33152330;2023-07-08T06:02:37;24.70;46.30
9544;DHT22;30418;51.45933468;7.33152330;2023-07-08T06:05:07;24.80;46.30
9544;DHT22;30418;51.45933468;7.33152330;2023-07-08T06:07:35;24.80;46.40
9544;DHT22;30418;51.45933468;7.33152330;2023-07-08T06:10:04;24.80;46.40
9544;DHT22;30418;51.45933468;7.33152330;2023-07-08T06:12:33;24.80;46.60
9544;DHT22;30418;51.45933468;7.33152330;2023-07-08T06:15:05;24.80;46.60
9544;DHT22;30418;51.45933468;7.33152330;2023-07-08T06:17:34;24.80;46.90
9544;DHT22;30418;51.45933468;7.33152330;2023-07-08T06:20:03;24.80;46.70
9544;DHT22;30418;51.45933468;7.33152330;2023-07-08T06:22:32;24.90;46.80
9544;DHT22;30418;51.45933468;7.33152330;2023-07-08T06:25:04;24.90;46.90
9544;DHT22;30418;51.45933468;7.33152330;2023-07-08T06:27:33;25.00;47.10
9544;DHT22;30418;51.45933468;7.33152330;2023-07-08T06:30:01;25.00;47.20
9544;DHT22;30418;51.45933468;7.33152330;2023-07-08T06:32:32;25.00;47.30
9544;DHT22;30418;51.45933468;7.33152330;2023-07-08T06:35:01;25.00;47.20
9544;DHT22;30418;51.45933468;7.33152330;2023-07-08T06:37:30;25.10;47.10
9544;DHT22;30418;51.45933468;7.33152330;2023-07-08T06:39:59;25.10;47.20
9544;DHT22;30418;51.45933468;7.33152330;2023-07-08T06:42:27;25.10;47.30
9544;DHT22;30418;51.45933468;7.33152330;2023-07-08T06:45:07;25.10;47.20
9544;DHT22;30418;51.45933468;7.33152330;2023-07-08T06:47:36;25.20;47.20
9544;DHT22;30418;51.45933468;7.33152330;2023-07-08T06:50:06;25.20;47.30
9544;DHT22;30418;51.45933468;7.33152330;2023-07-08T06:52:35;25.20;47.50
9544;DHT22;30418;51.45933468;7.33152330;2023-07-08T06:55:07;25.20;47.50
9544;DHT22;30418;51.45933468;7.33152330;2023-07-08T06:57:36;25.30;47.60
9544;DHT22;30418;51.45933468;7.33152330;2023-07-08T07:00:09;25.30;47.50
9544;DHT22;30418;51.45933468;7.33152330;2023-07-08T07:02:39;25.40;47.80
9544;DHT22;30418;51.45933468;7.33152330;2023-07-08T07:05:07;25.40;47.50
9544;DHT22;30418;51.45933468;7.33152330;2023-07-08T07:07:36;25.40;47.60
9544;DHT22;30418;51.45933468;7.33152330;2023-07-08T07:10:05;25.40;47.50
9544;DHT22;30418;51.45933468;7.33152330;2023-07-08T07:12:35;25.50;47.40
9544;DHT22;30418;51.45933468;7.33152330;2023-07-08T07:15:04;25.60;47.70
9544;DHT22;30418;51.45933468;7.33152330;2023-07-08T07:17:35;25.60;47.90
9544;DHT22;30418;51.45933468;7.33152330;2023-07-08T07:20:04;25.60;47.70
9544;DHT22;30418;51.45933468;7.33152330;2023-07-08T07:22:34;25.70;47.90
9544;DHT22;30418;51.45933468;7.33152330;2023-07-08T07:25:03;25.70;48.50
9544;DHT22;30418;51.45933468;7.33152330;2023-07-08T07:27:32;25.70;47.90
9544;DHT22;30418;51.45933468;7.33152330;2023-07-08T07:30:01;25.80;47.90
9544;DHT22;30418;51.45933468;7.33152330;2023-07-08T07:32:31;25.90;47.90
9544;DHT22;30418;51.45933468;7.33152330;2023-07-08T07:35:00;25.90;48.50
9544;DHT22;30418;51.45933468;7.33152330;2023-07-08T07:37:28;25.90;47.70
9544;DHT22;30418;51.45933468;7.33152330;2023-07-08T07:39:57;26.00;47.60
9544;DHT22;30418;51.45933468;7.33152330;2023-07-08T07:42:27;26.00;47.40
9544;DHT22;30418;51.45933468;7.33152330;2023-07-08T07:44:56;26.10;47.40
9544;DHT22;30418;51.45933468;7.33152330;2023-07-08T07:47:24;26.10;47.20
9544;DHT22;30418;51.45933468;7.33152330;2023-07-08T07:49:58;26.20;47.20
9544;DHT22;30418;51.45933468;7.33152330;2023-07-08T07:52:26;26.30;47.20
9544;DHT22;30418;51.45933468;7.33152330;2023-07-08T07:54:55;26.40;47.80
9544;DHT22;30418;51.45933468;7.33152330;2023-07-08T07:57:24;26.40;47.00
9544;DHT22;30418;51.45933468;7.33152330;2023-07-08T07:59:52;26.50;47.00
9544;DHT22;30418;51.45933468;7.33152330;2023-07-08T08:02:21;26.60;47.10
9544;DHT22;30418;51.45933468;7.33152330;2023-07-08T08:04:49;26.70;47.30
9544;DHT22;30418;51.45933468;7.33152330;2023-07-08T08:07:19;26.80;47.30
9544;DHT22;30418;51.45933468;7.33152330;2023-07-08T08:09:48;26.90;47.20
9544;DHT22;30418;51.45933468;7.33152330;2023-07-08T08:12:16;27.00;46.90
9544;DHT22;30418;51.45933468;7.33152330;2023-07-08T08:14:45;27.10;46.30
9544;DHT22;30418;51.45933468;7.33152330;2023-07-08T08:17:14;27.20;46.20
9544;DHT22;30418;51.45933468;7.33152330;2023-07-08T08:19:42;27.30;45.70
9544;DHT22;30418;51.45933468;7.33152330;2023-07-08T08:22:10;27.40;45.50
9544;DHT22;30418;51.45933468;7.33152330;2023-07-08T08:24:41;27.50;45.40
9544;DHT22;30418;51.45933468;7.33152330;2023-07-08T08:27:09;27.60;45.40
9544;DHT22;30418;51.45933468;7.33152330;2023-07-08T08:29:38;27.70;45.40
9544;DHT22;30418;51.45933468;7.33152330;2023-07-08T08:32:07;27.80;45.30
9544;DHT22;30418;51.45933468;7.33152330;2023-07-08T08:34:36;27.90;45.30
9544;DHT22;30418;51.45933468;7.33152330;2023-07-08T08:37:04;28.00;45.10
9544;DHT22;30418;51.45933468;7.33152330;2023-07-08T08:39:33;28.20;44.80
9544;DHT22;30418;51.45933468;7.33152330;2023-07-08T08:42:04;28.30;44.50
9544;DHT22;30418;51.45933468;7.33152330;2023-07-08T08:44:35;28.40;44.40
9544;DHT22;30418;51.45933468;7.33152330;2023-07-08T08:47:11;28.50;44.30
9544;DHT22;30418;51.45933468;7.33152330;2023-07-08T08:49:52;28.60;45.00
9544;DHT22;30418;51.45933468;7.33152330;2023-07-08T08:52:24;28.70;44.10
9544;DHT22;30418;51.45933468;7.33152330;2023-07-08T08:54:52;28.80;43.80
9544;DHT22;30418;51.45933468;7.33152330;2023-07-08T08:57:32;28.90;43.40
9544;DHT22;30418;51.45933468;7.33152330;2023-07-08T09:00:07;29.00;42.80
9544;DHT22;30418;51.45933468;7.33152330;2023-07-08T09:02:41;29.10;42.70
9544;DHT22;30418;51.45933468;7.33152330;2023-07-08T09:05:13;29.20;42.70
9544;DHT22;30418;51.45933468;7.33152330;2023-07-08T09:08:02;29.30;42.70
9544;DHT22;30418;51.45933468;7.33152330;2023-07-08T09:10:42;29.40;42.10
9544;DHT22;30418;51.45933468;7.33152330;2023-07-08T09:13:19;29.50;42.20
9544;DHT22;30418;51.45933468;7.33152330;2023-07-08T09:15:57;29.50;41.80
9544;DHT22;30418;51.45933468;7.33152330;2023-07-08T09:18:33;29.60;41.50
9544;DHT22;30418;51.45933468;7.33152330;2023-07-08T09:21:16;29.70;41.60
9544;DHT22;30418;51.45933468;7.33152330;2023-07-08T09:23:50;29.80;41.20
9544;DHT22;30418;51.45933468;7.33152330;2023-07-08T09:26:22;29.80;41.10
9544;DHT22;30418;51.45933468;7.33152330;2023-07-08T09:28:54;29.90;41.10
9544;DHT22;30418;51.45933468;7.33152330;2023-07-08T09:31:25;30.00;40.90
9544;DHT22;30418;51.45933468;7.33152330;2023-07-08T09:34:07;30.10;40.90
9544;DHT22;30418;51.45933468;7.33152330;2023-07-08T09:36:41;30.20;40.20
9544;DHT22;30418;51.45933468;7.33152330;2023-07-08T09:39:12;30.30;40.20
9544;DHT22;30418;51.45933468;7.33152330;2023-07-08T09:41:44;30.30;40.20
9544;DHT22;30418;51.45933468;7.33152330;2023-07-08T09:44:19;30.40;39.90
9544;DHT22;30418;51.45933468;7.33152330;2023-07-08T09:46:54;30.40;39.90
9544;DHT22;30418;51.45933468;7.33152330;2023-07-08T09:49:28;30.50;40.00
9544;DHT22;30418;51.45933468;7.33152330;2023-07-08T09:52:00;30.50;39.70
9544;DHT22;30418;51.45933468;7.33152330;2023-07-08T09:54:30;30.60;39.60
9544;DHT22;30418;51.45933468;7.33152330;2023-07-08T09:57:04;30.70;39.60
9544;DHT22;30418;51.45933468;7.33152330;2023-07-08T09:59:42;30.80;39.40
9544;DHT22;30418;51.45933468;7.33152330;2023-07-08T10:02:25;30.80;39.00
9544;DHT22;30418;51.45933468;7.33152330;2023-07-08T10:04:59;30.90;38.70
9544;DHT22;30418;51.45933468;7.33152330;2023-07-08T10:07:30;31.00;39.40
9544;DHT22;30418;51.45933468;7.33152330;2023-07-08T10:10:04;31.10;38.80
9544;DHT22;30418;51.45933468;7.33152330;2023-07-08T10:12:38;31.10;38.30
9544;DHT22;30418;51.45933468;7.33152330;2023-07-08T10:15:15;31.20;38.20
9544;DHT22;30418;51.45933468;7.33152330;2023-07-08T10:17:46;31.20;38.40
9544;DHT22;30418;51.45933468;7.33152330;2023-07-08T10:20:15;31.30;38.20
9544;DHT22;30418;51.45933468;7.33152330;2023-07-08T10:22:57;31.30;37.90
9544;DHT22;30418;51.45933468;7.33152330;2023-07-08T10:25:38;31.50;37.70
9544;DHT22;30418;51.45933468;7.33152330;2023-07-08T10:28:22;31.50;37.40
9544;DHT22;30418;51.45933468;7.33152330;2023-07-08T10:31:05;31.50;37.40
9544;DHT22;30418;51.45933468;7.33152330;2023-07-08T10:33:52;31.60;37.40
9544;DHT22;30418;51.45933468;7.33152330;2023-07-08T10:36:35;31.70;37.30
9544;DHT22;30418;51.45933468;7.33152330;2023-07-08T10:39:26;31.70;37.30
9544;DHT22;30418;51.45933468;7.33152330;2023-07-08T10:42:07;31.80;37.20
9544;DHT22;30418;51.45933468;7.33152330;2023-07-08T10:44:45;31.90;37.10
9544;DHT22;30418;51.45933468;7.33152330;2023-07-08T10:47:35;31.90;36.90
9544;DHT22;30418;51.45933468;7.33152330;2023-07-08T10:50:25;32.00;36.50
9544;DHT22;30418;51.45933468;7.33152330;2023-07-08T10:53:16;32.10;36.30
9544;DHT22;30418;51.45933468;7.33152330;2023-07-08T10:55:55;32.10;36.50
9544;DHT22;30418;51.45933468;7.33152330;2023-07-08T10:58:44;32.10;36.40
9544;DHT22;30418;51.45933468;7.33152330;2023-07-08T11:01:26;32.20;36.40
9544;DHT22;30418;51.45933468;7.33152330;2023-07-08T11:07:19;32.30;35.90
9544;DHT22;30418;51.45933468;7.33152330;2023-07-08T11:09:59;32.40;36.40
9544;DHT22;30418;51.45933468;7.33152330;2023-07-08T11:12:34;32.50;35.90
9544;DHT22;30418;51.45933468;7.33152330;2023-07-08T11:15:16;32.50;35.70
9544;DHT22;30418;51.45933468;7.33152330;2023-07-08T11:17:53;32.60;35.40
9544;DHT22;30418;51.45933468;7.33152330;2023-07-08T11:20:31;32.60;35.30
9544;DHT22;30418;51.45933468;7.33152330;2023-07-08T11:23:08;32.70;35.50
9544;DHT22;30418;51.45933468;7.33152330;2023-07-08T11:25:40;32.70;35.30
9544;DHT22;30418;51.45933468;7.33152330;2023-07-08T11:28:14;32.70;35.30
9544;DHT22;30418;51.45933468;7.33152330;2023-07-08T11:30:47;32.80;34.90
9544;DHT22;30418;51.45933468;7.33152330;2023-07-08T11:33:23;32.80;35.10
9544;DHT22;30418;51.45933468;7.33152330;2023-07-08T11:35:56;32.90;34.80
9544;DHT22;30418;51.45933468;7.33152330;2023-07-08T11:38:26;32.90;34.80
9544;DHT22;30418;51.45933468;7.33152330;2023-07-08T11:40:58;33.00;35.10
9544;DHT22;30418;51.45933468;7.33152330;2023-07-08T11:43:34;33.00;34.80
9544;DHT22;30418;51.45933468;7.33152330;2023-07-08T11:46:12;33.10;34.50
9544;DHT22;30418;51.45933468;7.33152330;2023-07-08T11:48:45;33.10;34.80
9544;DHT22;30418;51.45933468;7.33152330;2023-07-08T11:51:20;33.20;34.60
9544;DHT22;30418;51.45933468;7.33152330;2023-07-08T11:54:01;33.20;34.80
9544;DHT22;30418;51.45933468;7.33152330;2023-07-08T11:56:57;33.30;33.90
9544;DHT22;30418;51.45933468;7.33152330;2023-07-08T11:59:30;33.30;34.20
9544;DHT22;30418;51.45933468;7.33152330;2023-07-08T12:02:02;33.30;34.30
9544;DHT22;30418;51.45933468;7.33152330;2023-07-08T12:04:55;33.40;34.20
9544;DHT22;30418;51.45933468;7.33152330;2023-07-08T12:07:31;33.40;34.00
9544;DHT22;30418;51.45933468;7.33152330;2023-07-08T12:10:08;33.50;33.70
9544;DHT22;30418;51.45933468;7.33152330;2023-07-08T12:12:42;33.50;33.40
9544;DHT22;30418;51.45933468;7.33152330;2023-07-08T12:15:15;33.60;33.60
9544;DHT22;30418;51.45933468;7.33152330;2023-07-08T12:17:46;33.60;33.60
9544;DHT22;30418;51.45933468;7.33152330;2023-07-08T12:20:23;33.60;33.20
9544;DHT22;30418;51.45933468;7.33152330;2023-07-08T12:22:54;33.70;33.60
9544;DHT22;30418;51.45933468;7.33152330;2023-07-08T12:25:29;33.70;32.90
9544;DHT22;30418;51.45933468;7.33152330;2023-07-08T12:28:02;33.80;32.70
9544;DHT22;30418;51.45933468;7.33152330;2023-07-08T12:30:32;33.80;33.10
9544;DHT22;30418;51.45933468;7.33152330;2023-07-08T12:33:01;33.80;33.40
9544;DHT22;30418;51.45933468;7.33152330;2023-07-08T12:35:32;33.90;33.00
9544;DHT22;30418;51.45933468;7.33152330;2023-07-08T12:38:09;33.90;32.60
9544;DHT22;30418;51.45933468;7.33152330;2023-07-08T12:40:45;34.00;32.20
9544;DHT22;30418;51.45933468;7.33152330;2023-07-08T12:43:19;34.00;32.50
9544;DHT22;30418;51.45933468;7.33152330;2023-07-08T12:45:48;34.10;32.50
9544;DHT22;30418;51.45933468;7.33152330;2023-07-08T12:48:16;34.20;32.70
9544;DHT22;30418;51.45933468;7.33152330;2023-07-08T12:50:44;34.20;32.20
9544;DHT22;30418;51.45933468;7.33152330;2023-07-08T12:53:14;34.20;32.30
9544;DHT22;30418;51.45933468;7.33152330;2023-07-08T12:55:45;34.30;32.30
9544;DHT22;30418;51.45933468;7.33152330;2023-07-08T12:58:23;34.40;31.90
9544;DHT22;30418;51.45933468;7.33152330;2023-07-08T13:00:55;34.40;31.40
9544;DHT22;30418;51.45933468;7.33152330;2023-07-08T13:03:28;34.50;31.80
9544;DHT22;30418;51.45933468;7.33152330;2023-07-08T13:05:59;34.50;31.70
9544;DHT22;30418;51.45933468;7.33152330;2023-07-08T13:08:34;34.60;31.80
9544;DHT22;30418;51.45933468;7.33152330;2023-07-08T13:11:05;34.60;31.50
9544;DHT22;30418;51.45933468;7.33152330;2023-07-08T13:13:36;34.60;31.20
9544;DHT22;30418;51.45933468;7.33152330;2023-07-08T13:16:08;34.70;31.20
9544;DHT22;30418;51.45933468;7.33152330;2023-07-08T13:18:40;34.80;31.20
9544;DHT22;30418;51.45933468;7.33152330;2023-07-08T13:21:12;34.80;31.00
9544;DHT22;30418;51.45933468;7.33152330;2023-07-08T13:23:43;34.80;30.90
9544;DHT22;30418;51.45933468;7.33152330;2023-07-08T13:26:13;34.80;31.00
9544;DHT22;30418;51.45933468;7.33152330;2023-07-08T13:28:43;34.80;31.00
9544;DHT22;30418;51.45933468;7.33152330;2023-07-08T13:31:15;34.90;31.20
9544;DHT22;30418;51.45933468;7.33152330;2023-07-08T13:33:52;34.80;30.90
9544;DHT22;30418;51.45933468;7.33152330;2023-07-08T13:36:29;34.90;31.10
9544;DHT22;30418;51.45933468;7.33152330;2023-07-08T13:39:05;34.90;30.40
9544;DHT22;30418;51.45933468;7.33152330;2023-07-08T13:41:36;35.00;30.50
9544;DHT22;30418;51.45933468;7.33152330;2023-07-08T13:44:05;35.00;30.40
9544;DHT22;30418;51.45933468;7.33152330;2023-07-08T13:46:36;35.00;30.30
9544;DHT22;30418;51.45933468;7.33152330;2023-07-08T13:49:12;35.10;30.60
9544;DHT22;30418;51.45933468;7.33152330;2023-07-08T13:51:42;35.10;30.40
9544;DHT22;30418;51.45933468;7.33152330;2023-07-08T13:54:19;35.20;30.80
9544;DHT22;30418;51.45933468;7.33152330;2023-07-08T13:56:50;35.20;30.60
9544;DHT22;30418;51.45933468;7.33152330;2023-07-08T13:59:22;35.30;30.60
9544;DHT22;30418;51.45933468;7.33152330;2023-07-08T14:01:54;35.30;30.50
9544;DHT22;30418;51.45933468;7.33152330;2023-07-08T14:04:28;35.40;30.30